createdAt,value
2023-05-01T10:05:47.665Z,16480.00
2023-05-01T10:06:47.653Z,16608.00
2023-05-01T10:07:47.637Z,16768.00
2023-05-01T10:08:47.627Z,16800.00
2023-05-01T10:09:47.606Z,16704.00
2023-05-01T10:10:47.603Z,16640.00
2023-05-01T10:11:47.576Z,16704.00
2023-05-01T10:12:47.562Z,16704.00
2023-05-01T10:13:47.564Z,16960.00
2023-05-01T10:14:47.553Z,17024.00
2023-05-01T10:15:47.511Z,16864.00
2023-05-01T10:16:47.613Z,16544.00
2023-05-01T10:29:45.166Z,16320.00
2023-05-01T10:30:31.016Z,16960.00
2023-05-01T10:32:15.974Z,18560.00
2023-05-01T10:33:15.997Z,19264.00
2023-05-01T10:34:15.975Z,19776.00
2023-05-01T10:35:15.950Z,20192.00
2023-05-01T10:36:15.937Z,20384.00
2023-05-01T10:37:15.940Z,20416.00
2023-05-01T10:38:15.923Z,20352.00
2023-05-01T10:39:15.882Z,20256.00
2023-05-01T10:40:15.890Z,20256.00
2023-05-01T10:41:15.875Z,20160.00
2023-05-01T10:42:15.876Z,19968.00
2023-05-01T10:43:15.912Z,19840.00
2023-05-01T10:44:15.855Z,19680.00
2023-05-01T10:45:15.817Z,19616.00
2023-05-01T10:46:15.868Z,19264.00
2023-05-01T10:47:15.830Z,19008.00
2023-05-01T10:48:15.808Z,18464.00
2023-05-01T10:49:15.784Z,18080.00
2023-05-01T10:50:16.038Z,17536.00
2023-05-01T10:51:15.772Z,17120.00
2023-05-01T10:52:15.780Z,16608.00
2023-05-01T10:53:15.759Z,15988.00
2023-05-01T10:54:15.759Z,15812.00
2023-05-01T10:55:15.723Z,15440.00
2023-05-01T10:56:15.757Z,14996.00
2023-05-01T10:57:15.729Z,14944.00
2023-05-01T10:58:15.745Z,14852.00
2023-05-01T10:59:15.702Z,14800.00
2023-05-01T11:00:15.710Z,14776.00
2023-05-01T11:01:15.687Z,14880.00
2023-05-01T11:02:15.864Z,15136.00
2023-05-01T11:03:15.707Z,15572.00
2023-05-01T11:04:15.676Z,16088.00
2023-05-01T11:05:16.414Z,16144.00
2023-05-01T11:06:15.775Z,15952.00
2023-05-01T11:07:15.782Z,15784.00
2023-05-01T11:08:15.640Z,15392.00
2023-05-01T11:09:15.639Z,14892.00
2023-05-01T11:10:15.629Z,14808.00
2023-05-01T11:23:24.523Z,15868.00
2023-05-01T11:24:24.500Z,16380.00
2023-05-01T11:25:24.493Z,16896.00
2023-05-01T11:26:24.491Z,17344.00
2023-05-01T11:27:24.463Z,17888.00
2023-05-01T11:28:24.456Z,18336.00
2023-05-01T11:29:24.470Z,18848.00
2023-05-01T11:30:24.461Z,19552.00
2023-05-01T11:31:24.447Z,19936.00
2023-05-01T11:32:24.528Z,19360.00
2023-05-01T11:33:24.436Z,19296.00
2023-05-01T11:34:24.443Z,19232.00
2023-05-01T11:35:24.457Z,19424.00
2023-05-01T11:36:24.447Z,19744.00
2023-05-01T11:37:24.374Z,20000.00
2023-05-01T11:38:24.368Z,20448.00
2023-05-01T11:39:24.449Z,20704.00
2023-05-01T11:40:24.398Z,20832.00
2023-05-01T11:41:24.340Z,20768.00
2023-05-01T11:42:24.345Z,20352.00
2023-05-01T11:43:24.341Z,20160.00
2023-05-01T11:44:24.335Z,20384.00
2023-05-01T11:45:24.323Z,20544.00
2023-05-01T11:46:24.403Z,20544.00
2023-05-01T11:47:24.345Z,20608.00
2023-05-01T11:48:24.284Z,20704.00
2023-05-01T11:49:24.269Z,20768.00
2023-05-01T11:50:24.294Z,20864.00
2023-05-01T11:51:24.257Z,21088.00
2023-05-01T11:52:24.240Z,21344.00
2023-05-01T11:53:24.260Z,21600.00
2023-05-01T11:54:24.229Z,21632.00
2023-05-01T11:55:24.250Z,21408.00
2023-05-01T11:56:27.075Z,20992.00
2023-05-01T11:57:24.185Z,20480.00
2023-05-01T11:58:24.204Z,20096.00
2023-05-01T11:59:24.173Z,19968.00
2023-05-01T12:00:24.192Z,20192.00
2023-05-01T12:01:24.169Z,20576.00
2023-05-01T12:02:24.202Z,20768.00
2023-05-01T12:03:24.348Z,20704.00
2023-05-01T12:04:24.168Z,20448.00
2023-05-01T12:05:24.128Z,20000.00
2023-05-01T12:06:24.177Z,19808.00
2023-05-01T12:07:24.120Z,19712.00
2023-05-01T12:08:24.110Z,19808.00
2023-05-01T12:09:24.086Z,19584.00
2023-05-01T12:10:24.101Z,19616.00
2023-05-01T12:11:24.108Z,19808.00
2023-05-01T12:12:24.085Z,19872.00
2023-05-01T12:13:24.070Z,20000.00
2023-05-01T12:14:24.074Z,20288.00
2023-05-01T12:15:24.046Z,20704.00
2023-05-01T12:16:24.079Z,21408.00
2023-05-01T12:17:24.263Z,21856.00
2023-05-01T12:18:24.113Z,21920.00
2023-05-01T12:19:24.142Z,22112.00
2023-05-01T12:20:24.015Z,22240.00
2023-05-01T12:21:23.994Z,22080.00
2023-05-01T12:22:24.002Z,21824.00
2023-05-01T12:23:23.956Z,21888.00
2023-05-01T12:24:23.981Z,21952.00
2023-05-01T12:25:23.971Z,22240.00
2023-05-01T12:26:23.989Z,22624.00
2023-05-01T12:27:23.930Z,22496.00
2023-05-01T12:28:23.938Z,22944.00
2023-05-01T12:29:23.920Z,23200.00
2023-05-01T12:30:23.922Z,23232.00
2023-05-01T12:31:23.917Z,23168.00
2023-05-01T12:32:23.914Z,23232.00
2023-05-01T12:33:23.869Z,23456.00
2023-05-01T12:34:23.891Z,23584.00
2023-05-01T12:35:23.858Z,23616.00
2023-05-01T12:36:23.882Z,23392.00
2023-05-01T12:37:23.861Z,23648.00
2023-05-01T12:38:23.846Z,23936.00
2023-05-01T12:39:23.916Z,23872.00
2023-05-01T12:40:23.845Z,23968.00
2023-05-01T12:41:23.832Z,24448.00
2023-05-01T12:42:23.826Z,24992.00
2023-05-01T12:43:23.787Z,25152.00
2023-05-01T12:44:23.879Z,25184.00
2023-05-01T12:45:23.795Z,25088.00
2023-05-01T12:46:23.874Z,24768.00
2023-05-01T12:47:23.765Z,24320.00
2023-05-01T12:48:23.769Z,23808.00
2023-05-01T12:49:23.754Z,23424.00
2023-05-01T12:50:23.749Z,23392.00
2023-05-01T12:51:23.745Z,23392.00
2023-05-01T12:52:23.724Z,23456.00
2023-05-01T12:53:23.720Z,23360.00
2023-05-01T12:54:23.701Z,23200.00
2023-05-01T12:55:23.689Z,22944.00
2023-05-01T12:56:23.728Z,22656.00
2023-05-01T12:57:23.682Z,22368.00
2023-05-01T12:58:23.670Z,22144.00
2023-05-01T12:59:23.669Z,22112.00
2023-05-01T13:00:23.662Z,22208.00
2023-05-01T13:01:23.683Z,22304.00
2023-05-01T13:02:23.710Z,22304.00
2023-05-01T13:03:23.846Z,22240.00
2023-05-01T13:04:23.755Z,22432.00
2023-05-01T13:05:23.620Z,22848.00
2023-05-01T13:06:23.627Z,23264.00
2023-05-01T13:07:23.615Z,23392.00
2023-05-01T13:08:23.581Z,23392.00
2023-05-01T13:09:23.582Z,23552.00
2023-05-01T13:10:23.562Z,24128.00
2023-05-01T13:11:23.543Z,24992.00
2023-05-01T13:12:23.577Z,25888.00
2023-05-01T13:13:23.542Z,26336.00
2023-05-01T13:14:23.530Z,26432.00
2023-05-01T13:15:23.527Z,28544.00
2023-05-01T13:16:23.578Z,29248.00
2023-05-01T13:17:23.585Z,31712.00
2023-05-01T13:18:23.494Z,29984.00
2023-05-01T13:19:23.496Z,31872.00
2023-05-01T13:20:23.499Z,27616.00
2023-05-01T13:21:23.476Z,26784.00
2023-05-01T13:22:23.474Z,26464.00
2023-05-01T13:23:23.454Z,25888.00
2023-05-01T13:24:23.463Z,25056.00
2023-05-01T13:25:23.424Z,24160.00
2023-05-01T13:26:23.423Z,23008.00
2023-05-01T13:27:23.439Z,21856.00
2023-05-01T13:28:23.403Z,20960.00
2023-05-01T13:29:23.411Z,20192.00
2023-05-01T13:30:23.390Z,19712.00
2023-05-01T13:31:23.419Z,19296.00
2023-05-01T13:32:23.420Z,18976.00
2023-05-01T13:57:44.399Z,27616.00
2023-05-01T13:58:44.384Z,22400.00
2023-05-01T13:59:44.363Z,17408.00
2023-05-01T14:02:40.153Z,16992.00
2023-05-01T14:03:40.106Z,19456.00
2023-05-01T14:04:40.035Z,27744.00
2023-05-01T14:05:40.092Z,49376.00
2023-05-01T14:06:40.084Z,32448.00
2023-05-01T14:07:40.048Z,80576.00
2023-05-01T14:08:40.023Z,58400.00
2023-05-01T14:09:39.983Z,37664.00
2023-05-01T14:10:39.995Z,78880.00
2023-05-01T14:11:39.989Z,78944.00
2023-05-01T14:12:39.946Z,78656.00
2023-05-01T14:13:40.057Z,79232.00
2023-05-01T14:14:39.931Z,80928.00
2023-05-01T14:15:39.961Z,80256.00
2023-05-01T14:16:39.987Z,80288.00
2023-05-01T14:17:39.954Z,63264.00
2023-05-01T14:18:39.917Z,26560.00
2023-05-01T14:19:39.907Z,23488.00
2023-05-01T14:20:39.895Z,21568.00
2023-05-01T14:21:39.892Z,21472.00
2023-05-01T14:22:39.900Z,23296.00
2023-05-01T14:23:39.915Z,23712.00
2023-05-01T14:24:39.888Z,21024.00
2023-05-01T14:25:39.892Z,21056.00
2023-05-01T14:26:39.868Z,20640.00
2023-05-01T14:27:39.862Z,20320.00
2023-05-01T14:28:39.860Z,20480.00
2023-05-01T14:29:39.868Z,22624.00
2023-05-01T14:30:39.832Z,50944.00
2023-05-01T14:31:40.165Z,27904.00
2023-05-01T14:32:39.859Z,51520.00
2023-05-01T14:33:39.853Z,37664.00
2023-05-01T14:34:39.825Z,27200.00
2023-05-01T14:35:39.838Z,28576.00
2023-05-01T14:36:39.791Z,53312.00
2023-05-01T14:37:39.792Z,34496.00
2023-05-01T14:38:39.811Z,25152.00
2023-05-01T14:39:39.796Z,20064.00
2023-05-01T14:40:39.779Z,19072.00
2023-05-01T14:41:39.767Z,17344.00
2023-05-01T14:44:16.352Z,16832.00
2023-05-01T14:45:16.442Z,18144.00
2023-05-01T14:46:16.356Z,19200.00
2023-05-01T14:47:16.333Z,18432.00
2023-05-01T14:48:16.330Z,18432.00
2023-05-01T14:49:16.332Z,18816.00
2023-05-01T14:50:16.288Z,25568.00
2023-05-01T14:51:16.306Z,25920.00
2023-05-01T14:52:16.268Z,38304.00
2023-05-01T14:53:16.287Z,47456.00
2023-05-01T14:54:16.295Z,21888.00
2023-05-01T14:55:16.249Z,20480.00
2023-05-01T14:56:16.249Z,19520.00
2023-05-01T15:25:06.718Z,17568.00
2023-05-01T15:26:06.692Z,26624.00
2023-05-01T15:27:06.664Z,19328.00
2023-05-01T15:28:06.677Z,20832.00
2023-05-01T15:29:47.561Z,19136.00
